createdAt,value
2023-05-15T00:01:25.358Z,101157.00
2023-05-15T00:06:31.166Z,101146.03
2023-05-15T00:11:36.624Z,101155.78
2023-05-15T00:16:42.354Z,101157.63
2023-05-15T00:21:47.919Z,101149.97
2023-05-15T00:26:53.445Z,101156.50
2023-05-15T00:31:59.105Z,101159.19
2023-05-15T00:37:04.924Z,101163.19
2023-05-15T00:42:11.034Z,101156.06
2023-05-15T00:47:17.356Z,101148.63
2023-05-15T00:52:23.836Z,101157.94
2023-05-15T00:57:29.867Z,101157.94
2023-05-15T01:02:35.574Z,101162.97
2023-05-15T01:08:15.641Z,101160.47
2023-05-15T01:13:23.532Z,101167.38
2023-05-15T01:18:35.119Z,101166.84
2023-05-15T01:24:00.388Z,101187.31
2023-05-15T01:29:17.024Z,101177.41
2023-05-15T01:34:31.507Z,101183.25
2023-05-15T01:39:39.808Z,101181.81
2023-05-15T01:44:56.493Z,101187.81
2023-05-15T01:50:04.860Z,101197.09
2023-05-15T01:55:11.880Z,101193.00
2023-05-15T02:00:18.496Z,101186.22
2023-05-15T02:05:24.861Z,101191.00
2023-05-15T02:10:32.777Z,101189.53
2023-05-15T02:15:39.445Z,101190.56
2023-05-15T02:20:45.481Z,101184.91
2023-05-15T02:26:16.317Z,101203.22
2023-05-15T02:32:04.670Z,101214.19
2023-05-15T02:37:14.760Z,101215.63
2023-05-15T02:42:21.982Z,101210.31
2023-05-15T02:47:28.461Z,101210.19
2023-05-15T02:52:36.357Z,101213.56
2023-05-15T02:57:42.031Z,101211.78
2023-05-15T03:02:47.496Z,101216.06
2023-05-15T03:07:53.099Z,101217.00
2023-05-15T03:12:58.883Z,101213.44
2023-05-15T03:18:04.424Z,101227.38
2023-05-15T03:23:09.897Z,101213.81
2023-05-15T03:28:15.504Z,101216.19
2023-05-15T03:33:21.206Z,101219.00
2023-05-15T03:38:27.101Z,101213.44
2023-05-15T03:43:32.843Z,101234.19
2023-05-15T03:48:38.356Z,101237.13
2023-05-15T03:53:44.662Z,101244.91
2023-05-15T03:58:50.297Z,101241.34
2023-05-15T04:03:55.671Z,101238.78
2023-05-15T04:08:59.864Z,101248.69
2023-05-15T04:14:05.285Z,101249.84
2023-05-15T04:19:11.127Z,101251.81
2023-05-15T04:24:16.251Z,101257.97
2023-05-15T04:29:20.364Z,101249.84
2023-05-15T04:34:26.057Z,101249.22
2023-05-15T04:39:34.123Z,101238.81
2023-05-15T04:44:38.875Z,101251.50
2023-05-15T04:49:43.460Z,101238.94
2023-05-15T04:54:50.535Z,101237.63
2023-05-15T04:59:57.949Z,101228.66
2023-05-15T05:05:03.988Z,101238.75
2023-05-15T05:10:10.060Z,101233.66
2023-05-15T05:15:16.322Z,101240.38
2023-05-15T05:20:20.505Z,101236.31
2023-05-15T05:25:26.445Z,101241.09
2023-05-15T05:30:43.366Z,101210.78
2023-05-15T05:35:50.393Z,101235.06
2023-05-15T05:40:54.737Z,101225.06
2023-05-15T05:45:59.160Z,101215.56
2023-05-15T05:51:03.383Z,101235.66
2023-05-15T05:56:07.871Z,101205.41
2023-05-15T06:01:12.147Z,101226.47
2023-05-15T06:06:16.345Z,101209.13
2023-05-15T06:11:20.537Z,101216.50
2023-05-15T06:16:27.628Z,101215.88
2023-05-15T06:21:33.512Z,101218.16
2023-05-15T06:26:39.287Z,101230.47
2023-05-15T06:31:44.515Z,101216.69
2023-05-15T06:42:33.631Z,101218.34
2023-05-15T06:47:37.802Z,101197.25
2023-05-15T06:52:41.974Z,101213.94
2023-05-15T06:57:46.051Z,101212.03
2023-05-15T07:02:50.455Z,101214.63
2023-05-15T07:07:57.913Z,101242.97
2023-05-15T07:13:02.104Z,101218.06
2023-05-15T07:18:07.287Z,101226.50
2023-05-15T07:23:11.591Z,101232.47
2023-05-15T07:28:15.907Z,101223.78
2023-05-15T07:33:20.357Z,101223.78
2023-05-15T07:38:24.593Z,101229.75
2023-05-15T07:43:28.876Z,101227.31
2023-05-15T07:48:33.155Z,101230.22
2023-05-15T07:53:37.379Z,101230.88
2023-05-15T07:58:41.647Z,101215.34
2023-05-15T08:03:46.534Z,101227.47
2023-05-15T08:08:50.771Z,101209.25
2023-05-15T08:13:55.287Z,101202.66
2023-05-15T08:19:02.132Z,101204.66
2023-05-15T08:24:07.154Z,101193.38
2023-05-15T08:29:12.135Z,101186.25
2023-05-15T08:34:16.347Z,101188.41
2023-05-15T08:39:20.452Z,101187.75
2023-05-15T08:44:25.168Z,101174.19
2023-05-15T08:50:07.071Z,101180.72
2023-05-15T08:55:12.273Z,101182.75
2023-05-15T09:00:18.526Z,101168.63
2023-05-15T09:05:22.880Z,101159.97
2023-05-15T09:10:27.061Z,101168.56
2023-05-15T09:15:31.567Z,101169.13
2023-05-15T09:20:37.603Z,101152.53
2023-05-15T09:25:45.679Z,101156.69
2023-05-15T09:30:49.986Z,101142.69
2023-05-15T09:35:54.126Z,101163.25
2023-05-15T09:41:07.436Z,101160.66
2023-05-15T09:46:13.602Z,101141.19
2023-05-15T09:51:20.116Z,101140.63
2023-05-15T09:56:24.156Z,101138.44
2023-05-15T10:01:29.113Z,101124.13
2023-05-15T10:06:43.040Z,101116.31
2023-05-15T10:11:54.976Z,101120.06
2023-05-15T10:16:59.046Z,101117.22
2023-05-15T10:22:03.911Z,101106.44
2023-05-15T10:27:10.690Z,101101.94
2023-05-15T10:32:15.640Z,101111.59
2023-05-15T10:37:20.495Z,101096.03
2023-05-15T10:42:29.003Z,101100.88
2023-05-15T10:47:34.240Z,101102.09
2023-05-15T10:52:40.413Z,101092.59
2023-05-15T10:57:47.736Z,101091.84
2023-05-15T11:02:57.442Z,101088.28
2023-05-15T11:08:19.284Z,101090.19
2023-05-15T11:13:23.508Z,101086.78
2023-05-15T11:18:27.734Z,101095.53
2023-05-15T11:23:41.204Z,101070.38
2023-05-15T11:28:46.315Z,101079.22
2023-05-15T11:33:52.465Z,101087.25
2023-05-15T11:38:57.169Z,101078.06
2023-05-15T11:44:02.313Z,101076.16
2023-05-15T11:49:06.781Z,101078.59
2023-05-15T11:54:12.594Z,101076.50
2023-05-15T11:59:16.644Z,101063.38
2023-05-15T12:04:21.260Z,101070.91
2023-05-15T12:09:28.048Z,101063.97
2023-05-15T12:14:34.209Z,101068.03
2023-05-15T12:19:39.555Z,101064.97
2023-05-15T12:24:43.791Z,101055.44
2023-05-15T12:29:47.903Z,101012.03
2023-05-15T12:34:52.300Z,101025.22
2023-05-15T12:40:00.727Z,101054.28
2023-05-15T12:45:23.682Z,101056.91
2023-05-15T12:50:32.196Z,101063.84
2023-05-15T12:55:37.809Z,101064.94
2023-05-15T13:00:45.378Z,101062.19
2023-05-15T13:05:49.811Z,101054.94
2023-05-15T13:10:59.270Z,101059.06
2023-05-15T13:16:03.726Z,101056.06
2023-05-15T13:21:07.961Z,101059.53
2023-05-15T13:26:12.191Z,101059.69
2023-05-15T13:31:17.779Z,101056.38
2023-05-15T13:36:22.035Z,101066.84
2023-05-15T13:41:27.078Z,101065.56
2023-05-15T13:46:33.116Z,101072.94
2023-05-15T13:51:37.536Z,101074.53
2023-05-15T13:56:41.986Z,101082.25
2023-05-15T14:01:48.477Z,101103.50
2023-05-15T14:06:54.297Z,101095.13
2023-05-15T14:12:00.031Z,101099.66
2023-05-15T14:17:06.007Z,101098.50
2023-05-15T14:22:11.888Z,101100.31
2023-05-15T14:27:17.850Z,101100.81
2023-05-15T14:32:24.440Z,101102.09
2023-05-15T14:37:29.893Z,101111.91
2023-05-15T14:42:35.358Z,101114.97
2023-05-15T14:47:41.033Z,101123.47
2023-05-15T14:52:47.266Z,101119.59
2023-05-15T14:57:52.981Z,101120.59
2023-05-15T15:02:58.523Z,101152.56
2023-05-15T15:08:07.617Z,101152.41
2023-05-15T15:13:14.742Z,101159.75
2023-05-15T15:18:21.608Z,101173.09
2023-05-15T15:23:28.538Z,101170.47
2023-05-15T15:28:37.288Z,101167.13
2023-05-15T15:33:42.943Z,101180.22
2023-05-15T15:38:48.466Z,101181.09
2023-05-15T15:43:54.479Z,101190.13
2023-05-15T15:48:59.548Z,101106.81
2023-05-15T15:54:05.157Z,101182.13
2023-05-15T15:59:11.186Z,101177.97
2023-05-15T16:04:17.020Z,101174.47
2023-05-15T16:09:22.580Z,101179.22
2023-05-15T16:14:28.551Z,101181.63
2023-05-15T16:19:35.123Z,101193.66
2023-05-15T16:24:41.401Z,101202.34
2023-05-15T16:29:46.740Z,101198.81
2023-05-15T16:34:52.407Z,101200.41
2023-05-15T16:39:58.018Z,101202.81
2023-05-15T16:45:04.234Z,101196.63
2023-05-15T16:50:10.537Z,101208.34
2023-05-15T16:55:18.757Z,101201.13
2023-05-15T17:00:25.635Z,101208.59
2023-05-15T17:05:31.791Z,101225.63
2023-05-15T17:10:37.605Z,101226.97
2023-05-15T17:15:43.499Z,101217.91
2023-05-15T17:20:49.174Z,101225.50
2023-05-15T17:25:54.645Z,101187.00
2023-05-15T17:31:00.882Z,101226.81
2023-05-15T17:36:06.926Z,101236.63
2023-05-15T17:41:12.516Z,101236.25
2023-05-15T17:46:18.038Z,101231.75
2023-05-15T17:51:23.716Z,101234.84
2023-05-15T17:56:29.149Z,101243.22
2023-05-15T18:01:34.447Z,101232.66
2023-05-15T18:06:40.065Z,101222.00
2023-05-15T18:11:45.617Z,101231.34
2023-05-15T18:16:51.662Z,101239.09
2023-05-15T18:21:58.123Z,101232.50
2023-05-15T18:27:04.489Z,101242.13
2023-05-15T18:32:11.044Z,101239.28
2023-05-15T18:37:16.443Z,101237.91
2023-05-15T18:42:21.943Z,101232.91
2023-05-15T18:47:27.611Z,101243.91
2023-05-15T18:52:33.418Z,101220.00
2023-05-15T18:57:39.471Z,101237.72
2023-05-15T19:02:45.442Z,101233.28
2023-05-15T19:07:51.100Z,101239.28
2023-05-15T19:12:58.057Z,101242.75
2023-05-15T19:18:03.685Z,101231.59
2023-05-15T19:23:10.251Z,101243.84
2023-05-15T19:28:16.043Z,101235.91
2023-05-15T19:33:21.502Z,101255.81
2023-05-15T19:38:27.126Z,101257.91
2023-05-15T19:43:39.677Z,101249.53
2023-05-15T19:48:45.315Z,101264.84
2023-05-15T19:53:50.902Z,101261.94
2023-05-15T19:58:56.343Z,101253.00
2023-05-15T20:04:01.957Z,101266.88
2023-05-15T20:09:07.546Z,101262.19
2023-05-15T20:14:13.878Z,101261.00
2023-05-15T20:19:25.723Z,101262.19
2023-05-15T20:24:32.982Z,101255.47
2023-05-15T20:29:39.719Z,101248.13
2023-05-15T20:34:46.264Z,101248.78
2023-05-15T20:39:52.155Z,101247.38
2023-05-15T20:44:57.908Z,101248.63
2023-05-15T20:50:03.788Z,101236.44
2023-05-15T20:55:20.793Z,101244.81
2023-05-15T21:00:27.319Z,101245.22
2023-05-15T21:05:33.186Z,101248.50
2023-05-15T21:10:38.737Z,101247.72
2023-05-15T21:15:44.506Z,101246.09
2023-05-15T21:20:49.919Z,101248.94
2023-05-15T21:25:55.363Z,101240.78
2023-05-15T21:31:08.308Z,101233.47
2023-05-15T21:36:13.912Z,101236.94
2023-05-15T21:41:20.248Z,101243.03
2023-05-15T21:46:25.872Z,101229.16
2023-05-15T21:51:31.511Z,101224.69
2023-05-15T21:56:37.108Z,101228.75
2023-05-15T22:01:42.797Z,101223.00
2023-05-15T22:06:49.316Z,101230.63
2023-05-15T22:11:54.916Z,101219.22
2023-05-15T22:17:00.467Z,101203.50
2023-05-15T22:22:06.262Z,101204.53
2023-05-15T22:27:11.744Z,101213.06
2023-05-15T22:32:17.378Z,101210.38
2023-05-15T22:37:23.141Z,101203.25
2023-05-15T22:42:29.317Z,101191.59
2023-05-15T22:47:35.124Z,101197.88
2023-05-15T22:52:40.877Z,101187.59
2023-05-15T22:57:46.498Z,101193.06
2023-05-15T23:02:57.994Z,101207.25
2023-05-15T23:08:03.968Z,101201.22
2023-05-15T23:13:09.726Z,101202.69
2023-05-15T23:18:15.347Z,101208.38
2023-05-15T23:23:20.902Z,101201.28
2023-05-15T23:28:26.646Z,101196.25
2023-05-15T23:33:32.098Z,101202.78
2023-05-15T23:38:37.018Z,101197.16
2023-05-15T23:43:42.915Z,101195.78
2023-05-15T23:48:48.434Z,101196.44
2023-05-15T23:53:54.318Z,101194.84
2023-05-15T23:59:00.294Z,101192.25
